Cenky — TCZV7 — position and weather

sailwx.info

Track history (hours):
 
Tides and Currents Weather Stations Pressure Air Temp Water Temp Dewpoint Dewpoint Depression Visibility Wind Speed Wind Dir Waves Ship Positions

Cenky

Last reported at 2016-Jul-15 22:22 UTC. Time now 2016-Jul-23 19:23 UTC.
Position N 31°09' E 032°18'.

Length 150 m; draft 5.2 m.

Type: Ship. MMSI: 271042575.

Date/timePositionNaut miles runAvg speedWind from/ knotsBaromVisibWave heightAir tempDewpointWater temp
2016-Jul-15 22:22N 31°09' E 032°18'7 3.6
2016-Jul-15 20:31N 31°16' E 032°19'0 0.0
2016-Jul-15 19:31N 31°16' E 032°19'0 0.0
2016-Jul-15 18:31N 31°16' E 032°19'0 0.0
2016-Jul-15 17:22N 31°16' E 032°19'3 3.4
2016-Jul-15 16:33N 31°18' E 032°21'3 2.1
2016-Jul-15 15:05N 31°21' E 032°20'0 0.0
2016-Jul-15 13:32N 31°21' E 032°20'0 0.0
2016-Jul-15 12:20N 31°21' E 032°20'0 0.0
2016-Jul-15 10:26N 31°21' E 032°20'4 0.4
2016-Jul-15 00:16N 31°24' E 032°21'7410.8
2016-Jul-14 17:23N 32°33' E 032°54'1411.6
2016-Jul-14 16:10N 32°43' E 033°05'811.8
2016-Jul-14 15:31N 32°49' E 033°11'2311.6
2016-Jul-14 13:32N 33°08' E 033°27'1311.9
2016-Jul-14 12:28N 33°19' E 033°35'4110.2
2016-Jul-14 08:28N 33°55' E 033°58'1611.7
2016-Jul-14 07:06N 34°09' E 034°07'4211.8
2016-Jul-14 03:33N 34°45' E 034°32'1512.1
2016-Jul-14 02:20N 34°58' E 034°40'1212.3
2016-Jul-14 01:23N 35°08' E 034°47'1412.4
2016-Jul-14 00:17N 35°20' E 034°56'912.3
2016-Jul-13 23:33N 35°28' E 035°01'1512.0
2016-Jul-13 22:20N 35°41' E 035°10'911.9
2016-Jul-13 21:33N 35°49' E 035°15'11 8.6
2016-Jul-13 20:15N 35°59' E 035°22'6 7.7
2016-Jul-13 19:29N 36°04' E 035°25'7 7.7
2016-Jul-13 18:33N 36°10' E 035°30'8 7.7
2016-Jul-13 17:33N 36°17' E 035°34'9 9.5
2016-Jul-13 16:33N 36°25' E 035°40'  
Track history (hours):
 
Tides and Currents Weather Stations Pressure Air Temp Water Temp Dewpoint Dewpoint Depression Visibility Wind Speed Wind Dir Waves Ship Positions

Cenky

Last reported at 2016-Jul-15 22:22 UTC. Time now 2016-Jul-23 19:23 UTC.
Position N 31°09' E 032°18'.

Length 150 m; draft 5.2 m.

Type: Ship. MMSI: 271042575.

Date/timePositionNaut miles runAvg speedWind from/ knotsBaromVisibWave heightAir tempDewpointWater temp
2016-Jul-15 22:22N 31°09' E 032°18'7 3.6
2016-Jul-15 20:31N 31°16' E 032°19'0 0.0
2016-Jul-15 19:31N 31°16' E 032°19'0 0.0
2016-Jul-15 18:31N 31°16' E 032°19'0 0.0
2016-Jul-15 17:22N 31°16' E 032°19'3 3.4
2016-Jul-15 16:33N 31°18' E 032°21'3 2.1
2016-Jul-15 15:05N 31°21' E 032°20'0 0.0
2016-Jul-15 13:32N 31°21' E 032°20'0 0.0
2016-Jul-15 12:20N 31°21' E 032°20'0 0.0
2016-Jul-15 10:26N 31°21' E 032°20'4 0.4
2016-Jul-15 00:16N 31°24' E 032°21'7410.8
2016-Jul-14 17:23N 32°33' E 032°54'1411.6
2016-Jul-14 16:10N 32°43' E 033°05'811.8
2016-Jul-14 15:31N 32°49' E 033°11'2311.6
2016-Jul-14 13:32N 33°08' E 033°27'1311.9
2016-Jul-14 12:28N 33°19' E 033°35'4110.2
2016-Jul-14 08:28N 33°55' E 033°58'1611.7
2016-Jul-14 07:06N 34°09' E 034°07'4211.8
2016-Jul-14 03:33N 34°45' E 034°32'1512.1
2016-Jul-14 02:20N 34°58' E 034°40'1212.3
2016-Jul-14 01:23N 35°08' E 034°47'1412.4
2016-Jul-14 00:17N 35°20' E 034°56'912.3
2016-Jul-13 23:33N 35°28' E 035°01'1512.0
2016-Jul-13 22:20N 35°41' E 035°10'911.9
2016-Jul-13 21:33N 35°49' E 035°15'11 8.6
2016-Jul-13 20:15N 35°59' E 035°22'6 7.7
2016-Jul-13 19:29N 36°04' E 035°25'7 7.7
2016-Jul-13 18:33N 36°10' E 035°30'8 7.7
2016-Jul-13 17:33N 36°17' E 035°34'9 9.5
2016-Jul-13 16:33N 36°25' E 035°40'  

Dump ship's entire track history